sensor_id;sensor_type;location;lat;lon;timestamp;temperature;humidity
47434;SHT31;33184;48.774;8.918;2022-12-29T00:03:47;7.27;77.31
47434;SHT31;33184;48.774;8.918;2022-12-29T00:09:07;7.34;77.09
47434;SHT31;33184;48.774;8.918;2022-12-29T00:14:29;7.38;76.94
47434;SHT31;33184;48.774;8.918;2022-12-29T00:20:08;7.51;76.78
47434;SHT31;33184;48.774;8.918;2022-12-29T00:25:47;7.56;76.50
47434;SHT31;33184;48.774;8.918;2022-12-29T00:31:26;7.72;76.23
47434;SHT31;33184;48.774;8.918;2022-12-29T00:37:05;7.83;75.82
47434;SHT31;33184;48.774;8.918;2022-12-29T00:42:27;7.89;75.63
47434;SHT31;33184;48.774;8.918;2022-12-29T00:48:07;7.79;75.85
47434;SHT31;33184;48.774;8.918;2022-12-29T00:53:27;7.82;75.66
47434;SHT31;33184;48.774;8.918;2022-12-29T00:58:48;7.87;75.48
47434;SHT31;33184;48.774;8.918;2022-12-29T01:04:09;7.82;75.62
47434;SHT31;33184;48.774;8.918;2022-12-29T01:09:31;7.81;75.94
47434;SHT31;33184;48.774;8.918;2022-12-29T01:15:12;7.75;76.32
47434;SHT31;33184;48.774;8.918;2022-12-29T01:20:33;7.74;76.55
47434;SHT31;33184;48.774;8.918;2022-12-29T01:25:53;7.83;76.74
47434;SHT31;33184;48.774;8.918;2022-12-29T01:31:15;7.86;76.77
47434;SHT31;33184;48.774;8.918;2022-12-29T01:36:35;8.00;76.72
47434;SHT31;33184;48.774;8.918;2022-12-29T01:41:56;8.17;76.04
47434;SHT31;33184;48.774;8.918;2022-12-29T01:48:06;8.30;75.65
47434;SHT31;33184;48.774;8.918;2022-12-29T01:53:24;8.38;75.15
47434;SHT31;33184;48.774;8.918;2022-12-29T01:58:48;8.44;74.86
47434;SHT31;33184;48.774;8.918;2022-12-29T02:04:11;8.57;74.35
47434;SHT31;33184;48.774;8.918;2022-12-29T02:09:32;8.54;74.47
47434;SHT31;33184;48.774;8.918;2022-12-29T02:14:57;8.55;74.41
47434;SHT31;33184;48.774;8.918;2022-12-29T02:26:16;8.78;73.36
47434;SHT31;33184;48.774;8.918;2022-12-29T02:31:54;8.74;73.52
47434;SHT31;33184;48.774;8.918;2022-12-29T02:43:14;8.92;72.65
47434;SHT31;33184;48.774;8.918;2022-12-29T02:48:57;8.89;72.86
47434;SHT31;33184;48.774;8.918;2022-12-29T02:54:21;8.82;73.50
47434;SHT31;33184;48.774;8.918;2022-12-29T03:00:19;8.71;73.68
47434;SHT31;33184;48.774;8.918;2022-12-29T03:11:25;9.12;72.36
47434;SHT31;33184;48.774;8.918;2022-12-29T03:17:10;9.63;70.15
47434;SHT31;33184;48.774;8.918;2022-12-29T03:22:38;10.02;68.62
47434;SHT31;33184;48.774;8.918;2022-12-29T03:28:08;10.22;67.86
47434;SHT31;33184;48.774;8.918;2022-12-29T03:33:37;10.45;66.71
47434;SHT31;33184;48.774;8.918;2022-12-29T03:39:08;10.41;67.25
47434;SHT31;33184;48.774;8.918;2022-12-29T03:44:35;10.41;67.12
47434;SHT31;33184;48.774;8.918;2022-12-29T03:49:57;10.53;66.55
47434;SHT31;33184;48.774;8.918;2022-12-29T03:55:17;10.62;66.41
47434;SHT31;33184;48.774;8.918;2022-12-29T04:00:38;10.55;66.92
47434;SHT31;33184;48.774;8.918;2022-12-29T04:05:59;10.61;66.81
47434;SHT31;33184;48.774;8.918;2022-12-29T04:11:21;10.73;66.55
47434;SHT31;33184;48.774;8.918;2022-12-29T04:16:43;10.63;66.94
47434;SHT31;33184;48.774;8.918;2022-12-29T04:22:03;10.61;67.39
47434;SHT31;33184;48.774;8.918;2022-12-29T04:27:24;10.58;67.49
47434;SHT31;33184;48.774;8.918;2022-12-29T04:33:05;10.56;67.82
47434;SHT31;33184;48.774;8.918;2022-12-29T04:38:26;10.52;68.18
47434;SHT31;33184;48.774;8.918;2022-12-29T04:43:47;10.49;68.65
47434;SHT31;33184;48.774;8.918;2022-12-29T04:49:26;10.38;69.40
47434;SHT31;33184;48.774;8.918;2022-12-29T04:54:46;10.38;69.76
47434;SHT31;33184;48.774;8.918;2022-12-29T05:00:12;10.28;70.38
47434;SHT31;33184;48.774;8.918;2022-12-29T05:05:34;10.25;70.64
47434;SHT31;33184;48.774;8.918;2022-12-29T05:10:55;10.17;70.99
47434;SHT31;33184;48.774;8.918;2022-12-29T05:16:15;10.15;71.46
47434;SHT31;33184;48.774;8.918;2022-12-29T05:21:36;10.12;71.61
47434;SHT31;33184;48.774;8.918;2022-12-29T05:26:57;10.35;71.04
47434;SHT31;33184;48.774;8.918;2022-12-29T05:32:37;10.35;71.01
47434;SHT31;33184;48.774;8.918;2022-12-29T05:37:58;10.49;70.55
47434;SHT31;33184;48.774;8.918;2022-12-29T05:43:19;10.52;70.55
47434;SHT31;33184;48.774;8.918;2022-12-29T05:49:01;10.41;71.22
47434;SHT31;33184;48.774;8.918;2022-12-29T05:54:57;10.48;71.01
47434;SHT31;33184;48.774;8.918;2022-12-29T06:00:20;10.49;70.88
47434;SHT31;33184;48.774;8.918;2022-12-29T06:05:41;10.39;71.11
47434;SHT31;33184;48.774;8.918;2022-12-29T06:11:01;10.32;71.34
47434;SHT31;33184;48.774;8.918;2022-12-29T06:16:22;10.28;71.47
47434;SHT31;33184;48.774;8.918;2022-12-29T06:21:46;10.32;71.18
47434;SHT31;33184;48.774;8.918;2022-12-29T06:27:07;10.21;71.32
47434;SHT31;33184;48.774;8.918;2022-12-29T06:32:28;10.26;71.17
47434;SHT31;33184;48.774;8.918;2022-12-29T06:37:54;10.33;70.81
47434;SHT31;33184;48.774;8.918;2022-12-29T06:43:14;10.26;70.89
47434;SHT31;33184;48.774;8.918;2022-12-29T06:48:55;10.24;70.76
47434;SHT31;33184;48.774;8.918;2022-12-29T06:54:16;10.25;70.46
47434;SHT31;33184;48.774;8.918;2022-12-29T06:59:36;10.29;70.04
47434;SHT31;33184;48.774;8.918;2022-12-29T07:04:57;10.26;69.99
47434;SHT31;33184;48.774;8.918;2022-12-29T07:10:17;10.14;70.30
47434;SHT31;33184;48.774;8.918;2022-12-29T07:15:38;10.14;70.35
47434;SHT31;33184;48.774;8.918;2022-12-29T07:20:58;10.12;70.17
47434;SHT31;33184;48.774;8.918;2022-12-29T07:26:19;10.00;70.57
47434;SHT31;33184;48.774;8.918;2022-12-29T07:31:39;9.93;70.78
47434;SHT31;33184;48.774;8.918;2022-12-29T07:37:00;9.98;70.50
47434;SHT31;33184;48.774;8.918;2022-12-29T07:42:20;9.93;70.65
47434;SHT31;33184;48.774;8.918;2022-12-29T07:47:48;10.02;70.06
47434;SHT31;33184;48.774;8.918;2022-12-29T07:53:09;10.08;69.60
47434;SHT31;33184;48.774;8.918;2022-12-29T07:58:29;10.11;69.57
47434;SHT31;33184;48.774;8.918;2022-12-29T08:03:50;10.07;69.67
47434;SHT31;33184;48.774;8.918;2022-12-29T08:09:11;10.14;69.39
47434;SHT31;33184;48.774;8.918;2022-12-29T08:14:31;10.29;68.53
47434;SHT31;33184;48.774;8.918;2022-12-29T08:19:52;10.29;68.43
47434;SHT31;33184;48.774;8.918;2022-12-29T08:25:12;10.52;67.59
47434;SHT31;33184;48.774;8.918;2022-12-29T08:30:33;10.76;66.18
47434;SHT31;33184;48.774;8.918;2022-12-29T08:36:02;10.79;66.36
47434;SHT31;33184;48.774;8.918;2022-12-29T08:41:23;10.84;65.88
47434;SHT31;33184;48.774;8.918;2022-12-29T08:46:44;10.97;65.93
47434;SHT31;33184;48.774;8.918;2022-12-29T08:52:04;11.20;64.81
47434;SHT31;33184;48.774;8.918;2022-12-29T08:57:25;11.34;64.52
47434;SHT31;33184;48.774;8.918;2022-12-29T09:03:17;11.50;64.20
47434;SHT31;33184;48.774;8.918;2022-12-29T09:08:38;11.59;63.97
47434;SHT31;33184;48.774;8.918;2022-12-29T09:13:58;11.82;63.37
47434;SHT31;33184;48.774;8.918;2022-12-29T09:19:19;11.90;63.29
47434;SHT31;33184;48.774;8.918;2022-12-29T09:24:39;12.15;62.33
47434;SHT31;33184;48.774;8.918;2022-12-29T09:30:00;12.19;62.58
47434;SHT31;33184;48.774;8.918;2022-12-29T09:35:21;12.26;62.51
47434;SHT31;33184;48.774;8.918;2022-12-29T09:40:44;12.40;62.07
47434;SHT31;33184;48.774;8.918;2022-12-29T09:51:56;12.43;62.96
47434;SHT31;33184;48.774;8.918;2022-12-29T10:03:18;12.25;64.11
47434;SHT31;33184;48.774;8.918;2022-12-29T10:08:44;12.26;64.39
47434;SHT31;33184;48.774;8.918;2022-12-29T10:25:26;12.60;63.58
47434;SHT31;33184;48.774;8.918;2022-12-29T10:30:49;12.88;63.41
47434;SHT31;33184;48.774;8.918;2022-12-29T10:36:20;13.01;63.62
47434;SHT31;33184;48.774;8.918;2022-12-29T10:41:46;12.93;63.09
47434;SHT31;33184;48.774;8.918;2022-12-29T10:47:29;12.74;63.37
47434;SHT31;33184;48.774;8.918;2022-12-29T10:52:52;12.77;63.33
47434;SHT31;33184;48.774;8.918;2022-12-29T10:58:14;12.57;63.78
47434;SHT31;33184;48.774;8.918;2022-12-29T11:09:27;12.50;63.69
47434;SHT31;33184;48.774;8.918;2022-12-29T11:20:36;12.56;62.23
47434;SHT31;33184;48.774;8.918;2022-12-29T11:31:27;12.49;60.30
47434;SHT31;33184;48.774;8.918;2022-12-29T11:36:49;12.37;61.12
47434;SHT31;33184;48.774;8.918;2022-12-29T11:42:16;12.20;62.81
47434;SHT31;33184;48.774;8.918;2022-12-29T11:47:37;11.95;65.12
47434;SHT31;33184;48.774;8.918;2022-12-29T11:53:05;11.71;66.82
47434;SHT31;33184;48.774;8.918;2022-12-29T11:58:32;11.54;69.27
47434;SHT31;33184;48.774;8.918;2022-12-29T12:04:03;11.38;71.06
47434;SHT31;33184;48.774;8.918;2022-12-29T12:09:35;11.31;71.36
47434;SHT31;33184;48.774;8.918;2022-12-29T12:14:58;11.35;71.63
47434;SHT31;33184;48.774;8.918;2022-12-29T12:26:18;11.77;71.14
47434;SHT31;33184;48.774;8.918;2022-12-29T12:31:49;12.05;70.34
47434;SHT31;33184;48.774;8.918;2022-12-29T13:00:01;13.29;66.56
47434;SHT31;33184;48.774;8.918;2022-12-29T13:05:56;12.83;68.55
47434;SHT31;33184;48.774;8.918;2022-12-29T13:11:46;12.98;69.01
47434;SHT31;33184;48.774;8.918;2022-12-29T13:22:49;12.22;69.51
47434;SHT31;33184;48.774;8.918;2022-12-29T13:28:16;12.02;70.65
47434;SHT31;33184;48.774;8.918;2022-12-29T13:39:57;11.88;70.15
47434;SHT31;33184;48.774;8.918;2022-12-29T13:45:22;11.85;70.59
47434;SHT31;33184;48.774;8.918;2022-12-29T13:50:50;11.77;70.90
47434;SHT31;33184;48.774;8.918;2022-12-29T13:56:19;11.71;71.21
47434;SHT31;33184;48.774;8.918;2022-12-29T14:02:02;11.65;71.90
47434;SHT31;33184;48.774;8.918;2022-12-29T14:07:24;11.61;72.79
47434;SHT31;33184;48.774;8.918;2022-12-29T14:12:44;11.50;73.43
47434;SHT31;33184;48.774;8.918;2022-12-29T14:18:15;11.52;74.06
47434;SHT31;33184;48.774;8.918;2022-12-29T14:34:44;11.40;74.46
47434;SHT31;33184;48.774;8.918;2022-12-29T14:45:28;11.18;75.41
47434;SHT31;33184;48.774;8.918;2022-12-29T14:50:49;11.08;76.04
47434;SHT31;33184;48.774;8.918;2022-12-29T14:56:12;11.03;76.26
47434;SHT31;33184;48.774;8.918;2022-12-29T15:01:43;10.87;76.77
47434;SHT31;33184;48.774;8.918;2022-12-29T15:07:09;10.75;77.42
47434;SHT31;33184;48.774;8.918;2022-12-29T15:12:40;10.68;77.74
47434;SHT31;33184;48.774;8.918;2022-12-29T15:18:24;10.69;77.65
47434;SHT31;33184;48.774;8.918;2022-12-29T15:23:45;10.68;77.86
47434;SHT31;33184;48.774;8.918;2022-12-29T15:34:59;10.49;81.52
47434;SHT31;33184;48.774;8.918;2022-12-29T15:40:30;9.87;81.68
47434;SHT31;33184;48.774;8.918;2022-12-29T15:45:51;9.58;82.20
47434;SHT31;33184;48.774;8.918;2022-12-29T15:51:20;9.42;83.27
47434;SHT31;33184;48.774;8.918;2022-12-29T15:56:42;9.23;84.46
47434;SHT31;33184;48.774;8.918;2022-12-29T16:02:02;9.15;84.67
47434;SHT31;33184;48.774;8.918;2022-12-29T16:07:26;9.06;85.46
47434;SHT31;33184;48.774;8.918;2022-12-29T16:12:47;9.05;85.42
47434;SHT31;33184;48.774;8.918;2022-12-29T16:18:22;9.02;85.51
47434;SHT31;33184;48.774;8.918;2022-12-29T16:23:48;9.01;85.38
47434;SHT31;33184;48.774;8.918;2022-12-29T16:29:12;9.01;85.28
47434;SHT31;33184;48.774;8.918;2022-12-29T16:34:42;9.09;85.26
47434;SHT31;33184;48.774;8.918;2022-12-29T16:40:27;9.13;85.38
47434;SHT31;33184;48.774;8.918;2022-12-29T16:51:16;9.08;85.75
47434;SHT31;33184;48.774;8.918;2022-12-29T16:56:43;9.03;86.02
47434;SHT31;33184;48.774;8.918;2022-12-29T17:02:15;9.08;86.06
47434;SHT31;33184;48.774;8.918;2022-12-29T17:07:36;9.03;86.54
47434;SHT31;33184;48.774;8.918;2022-12-29T17:12:57;9.01;86.63
47434;SHT31;33184;48.774;8.918;2022-12-29T17:18:17;9.01;86.88
47434;SHT31;33184;48.774;8.918;2022-12-29T17:23:38;8.92;87.18
47434;SHT31;33184;48.774;8.918;2022-12-29T17:28:59;8.81;87.39
47434;SHT31;33184;48.774;8.918;2022-12-29T17:34:19;8.72;87.77
47434;SHT31;33184;48.774;8.918;2022-12-29T17:39:40;8.68;87.90
47434;SHT31;33184;48.774;8.918;2022-12-29T17:45:01;8.75;87.93
47434;SHT31;33184;48.774;8.918;2022-12-29T17:50:24;8.67;88.18
47434;SHT31;33184;48.774;8.918;2022-12-29T17:55:45;8.68;88.49
47434;SHT31;33184;48.774;8.918;2022-12-29T18:01:06;8.65;88.76
47434;SHT31;33184;48.774;8.918;2022-12-29T18:06:26;8.55;89.62
47434;SHT31;33184;48.774;8.918;2022-12-29T18:11:47;8.51;89.26
47434;SHT31;33184;48.774;8.918;2022-12-29T18:17:11;8.52;89.28
47434;SHT31;33184;48.774;8.918;2022-12-29T18:22:32;8.45;89.43
47434;SHT31;33184;48.774;8.918;2022-12-29T18:27:53;8.41;89.09
47434;SHT31;33184;48.774;8.918;2022-12-29T18:33:15;8.38;89.50
47434;SHT31;33184;48.774;8.918;2022-12-29T18:38:37;8.37;89.53
47434;SHT31;33184;48.774;8.918;2022-12-29T18:43:58;8.30;89.41
47434;SHT31;33184;48.774;8.918;2022-12-29T18:49:19;8.17;89.37
47434;SHT31;33184;48.774;8.918;2022-12-29T18:54:40;8.12;89.02
47434;SHT31;33184;48.774;8.918;2022-12-29T19:00:01;8.06;88.81
47434;SHT31;33184;48.774;8.918;2022-12-29T19:05:26;7.97;89.06
47434;SHT31;33184;48.774;8.918;2022-12-29T19:10:46;7.90;89.41
47434;SHT31;33184;48.774;8.918;2022-12-29T19:16:20;7.83;89.61
47434;SHT31;33184;48.774;8.918;2022-12-29T19:21:42;7.82;89.77
47434;SHT31;33184;48.774;8.918;2022-12-29T19:27:03;7.78;89.88
47434;SHT31;33184;48.774;8.918;2022-12-29T19:32:24;7.75;90.01
47434;SHT31;33184;48.774;8.918;2022-12-29T19:37:45;7.78;90.18
47434;SHT31;33184;48.774;8.918;2022-12-29T19:43:05;7.75;90.21
47434;SHT31;33184;48.774;8.918;2022-12-29T19:48:26;7.74;89.92
47434;SHT31;33184;48.774;8.918;2022-12-29T19:53:47;7.72;88.65
47434;SHT31;33184;48.774;8.918;2022-12-29T19:59:08;7.72;87.84
47434;SHT31;33184;48.774;8.918;2022-12-29T20:04:29;7.69;87.75
47434;SHT31;33184;48.774;8.918;2022-12-29T20:09:50;7.59;87.81
47434;SHT31;33184;48.774;8.918;2022-12-29T20:15:12;7.49;88.27
47434;SHT31;33184;48.774;8.918;2022-12-29T20:20:35;7.45;88.62
47434;SHT31;33184;48.774;8.918;2022-12-29T20:25:57;7.36;88.81
47434;SHT31;33184;48.774;8.918;2022-12-29T20:36:43;7.31;88.48
47434;SHT31;33184;48.774;8.918;2022-12-29T20:42:04;7.22;88.80
47434;SHT31;33184;48.774;8.918;2022-12-29T20:47:24;7.14;89.23
47434;SHT31;33184;48.774;8.918;2022-12-29T20:52:45;7.15;89.29
47434;SHT31;33184;48.774;8.918;2022-12-29T20:58:06;7.14;89.10
47434;SHT31;33184;48.774;8.918;2022-12-29T21:03:26;7.15;88.97
47434;SHT31;33184;48.774;8.918;2022-12-29T21:08:48;7.17;86.35
47434;SHT31;33184;48.774;8.918;2022-12-29T21:14:10;7.11;86.97
47434;SHT31;33184;48.774;8.918;2022-12-29T21:19:30;7.08;87.94
47434;SHT31;33184;48.774;8.918;2022-12-29T21:24:51;7.04;88.49
47434;SHT31;33184;48.774;8.918;2022-12-29T21:30:12;7.01;87.66
47434;SHT31;33184;48.774;8.918;2022-12-29T21:35:37;6.99;85.95
47434;SHT31;33184;48.774;8.918;2022-12-29T21:41:09;6.91;85.48
47434;SHT31;33184;48.774;8.918;2022-12-29T21:46:31;6.87;85.80
47434;SHT31;33184;48.774;8.918;2022-12-29T21:51:51;6.84;85.69
47434;SHT31;33184;48.774;8.918;2022-12-29T21:57:17;6.81;85.76
47434;SHT31;33184;48.774;8.918;2022-12-29T22:02:57;6.79;85.12
47434;SHT31;33184;48.774;8.918;2022-12-29T22:08:36;6.75;85.57
47434;SHT31;33184;48.774;8.918;2022-12-29T22:14:16;6.66;85.52
47434;SHT31;33184;48.774;8.918;2022-12-29T22:19:36;6.68;85.78
47434;SHT31;33184;48.774;8.918;2022-12-29T22:24:57;6.62;85.74
47434;SHT31;33184;48.774;8.918;2022-12-29T22:30:17;6.60;85.90
47434;SHT31;33184;48.774;8.918;2022-12-29T22:35:38;6.56;86.04
47434;SHT31;33184;48.774;8.918;2022-12-29T22:40:59;6.54;86.38
47434;SHT31;33184;48.774;8.918;2022-12-29T22:46:19;6.49;86.84
47434;SHT31;33184;48.774;8.918;2022-12-29T22:51:40;6.49;86.96
47434;SHT31;33184;48.774;8.918;2022-12-29T22:57:01;6.46;87.13
47434;SHT31;33184;48.774;8.918;2022-12-29T23:02:21;6.48;87.44
47434;SHT31;33184;48.774;8.918;2022-12-29T23:07:42;6.48;87.56
47434;SHT31;33184;48.774;8.918;2022-12-29T23:13:03;6.49;87.63
47434;SHT31;33184;48.774;8.918;2022-12-29T23:18:24;6.50;87.51
47434;SHT31;33184;48.774;8.918;2022-12-29T23:23:45;6.53;87.69
47434;SHT31;33184;48.774;8.918;2022-12-29T23:29:18;6.49;87.75
47434;SHT31;33184;48.774;8.918;2022-12-29T23:34:38;6.52;87.76
47434;SHT31;33184;48.774;8.918;2022-12-29T23:39:59;6.52;87.84
47434;SHT31;33184;48.774;8.918;2022-12-29T23:45:19;6.50;87.84
47434;SHT31;33184;48.774;8.918;2022-12-29T23:50:40;6.53;87.98
47434;SHT31;33184;48.774;8.918;2022-12-29T23:56:02;6.50;87.99
